.
WxDataArchive / Data Records for 2006-09-27
2006-09-26 September 2006 2006-09-28

Data Records for Wednesday, 27 September 2006

Time	Temp	Chill	HIndex	Humid	Dewpt	 Wind 	HiWind	WindDir	Rain 	Barom 
-----	----	-----	------	-----	-----	------	------	-------	-----	----- 
00:00	60.7	60.7	60.7	72	51.6	1	4	270	0.00	29.826 
00:05	60.9	60.9	60.9	72	51.8	1	3	248	0.00	29.826 
00:10	61.0	61.0	61.0	71	51.5	1	5	248	0.00	29.826 
00:15	61.0	61.0	61.0	71	51.5	1	3	248	0.00	29.824 
00:20	61.0	61.0	61.0	71	51.5	1	2	248	0.00	29.824 
00:25	61.0	61.0	61.0	71	51.5	1	4	248	0.00	29.824 
00:30	61.0	61.0	61.0	71	51.5	1	3	248	0.00	29.819 
00:35	61.0	61.0	61.0	71	51.5	1	2	248	0.00	29.819 
00:40	60.9	60.9	60.9	72	51.8	1	4	248	0.00	29.819 
00:45	60.7	60.7	60.7	72	51.6	1	4	248	0.00	29.818 
00:50	60.7	60.7	60.7	72	51.6	1	3	248	0.00	29.818 
00:55	60.5	60.5	60.5	73	51.8	0	3	248	0.00	29.818 
01:00	60.2	60.2	60.2	73	51.5	1	3	248	0.00	29.815 
01:05	60.1	60.1	60.1	74	51.8	0	2	248	0.00	29.815 
01:10	59.9	59.9	59.9	74	51.6	1	2	248	0.00	29.815 
01:15	59.8	59.8	59.8	74	51.5	1	3	248	0.00	29.809 
01:20	59.6	59.6	59.6	75	51.7	0	2	248	0.00	29.809 
01:25	59.6	59.6	59.6	75	51.7	1	3	248	0.00	29.809 
01:30	59.5	59.5	59.5	75	51.6	0	2	248	0.00	29.803 
01:35	59.3	59.3	59.3	75	51.4	1	2	248	0.00	29.803 
01:40	59.3	59.3	59.3	76	51.7	1	3	270	0.00	29.803 
01:45	59.2	59.2	59.2	76	51.6	1	3	248	0.00	29.798 
01:50	59.2	59.2	59.2	76	51.6	0	2	248	0.00	29.798 
01:55	59.0	59.0	59.0	76	51.4	1	3	248	0.00	29.798 
02:00	58.9	58.9	58.9	77	51.7	1	3	248	0.00	29.795 
02:05	58.9	58.9	58.9	77	51.7	0	3	225	0.00	29.795 
02:10	58.7	58.7	58.7	77	51.5	1	3	248	0.00	29.795 
02:15	58.4	58.4	58.4	78	51.6	0	1	248	0.00	29.794 
02:20	58.3	58.3	58.3	78	51.5	1	4	270	0.00	29.794 
02:25	58.1	58.1	58.1	79	51.6	0	4	270	0.00	29.794 
02:30	58.0	58.0	58.0	79	51.5	0	2	270	0.00	29.794 
02:35	57.8	57.8	57.8	79	51.3	1	5	248	0.00	29.794 
02:40	57.6	57.6	57.6	80	51.5	0	2	248	0.00	29.794 
02:45	57.5	57.5	57.5	80	51.4	0	2	248	0.00	29.790 
02:50	57.3	57.3	57.3	81	51.5	0	3	248	0.00	29.790 
02:55	57.2	57.2	57.2	81	51.4	0	2	248	0.00	29.790 
03:00	57.2	57.2	57.2	81	51.4	0	2	248	0.00	29.786 
03:05	57.2	57.2	57.2	81	51.4	0	3	248	0.00	29.786 
03:10	57.0	57.0	57.0	81	51.2	0	3	248	0.00	29.786 
03:15	57.0	57.0	57.0	81	51.2	0	1	248	0.00	29.783 
03:20	56.9	56.9	56.9	81	51.1	0	1	248	0.00	29.783 
03:25	56.9	56.9	56.9	81	51.1	0	1	248	0.00	29.783 
03:30	56.7	56.7	56.7	82	51.3	0	2	248	0.00	29.780 
03:35	56.6	56.6	56.6	82	51.2	0	2	248	0.00	29.780 
03:40	56.6	56.6	56.6	82	51.2	0	3	248	0.00	29.780 
03:45	56.6	56.6	56.6	82	51.2	1	4	270	0.00	29.770 
03:50	56.7	56.7	56.7	82	51.3	0	3	248	0.00	29.770 
03:55	56.7	56.7	56.7	82	51.3	0	2	270	0.00	29.770 
04:00	56.7	56.7	56.7	82	51.3	0	2	270	0.00	29.768 
04:05	56.7	56.7	56.7	82	51.3	0	2	270	0.00	29.768 
04:10	56.6	56.6	56.6	83	51.5	1	3	292	0.00	29.768 
04:15	56.6	56.6	56.6	83	51.5	0	2	270	0.00	29.767 
04:20	56.6	56.6	56.6	83	51.5	1	4	270	0.00	29.767 
04:25	56.5	56.5	56.5	83	51.4	0	2	270	0.00	29.767 
04:30	56.5	56.5	56.5	83	51.4	1	3	248	0.00	29.766 
04:35	56.5	56.5	56.5	83	51.4	0	2	248	0.00	29.766 
04:40	56.5	56.5	56.5	83	51.4	1	5	248	0.00	29.766 
04:45	56.5	56.5	56.5	83	51.4	1	3	270	0.00	29.765 
04:50	56.5	56.5	56.5	83	51.4	1	4	248	0.00	29.765 
04:55	56.5	56.5	56.5	84	51.7	1	2	225	0.00	29.765 
05:00	56.5	56.5	56.5	84	51.7	1	4	248	0.00	29.762 
05:05	56.5	56.5	56.5	83	51.4	1	5	248	0.00	29.762 
05:10	56.6	56.6	56.6	83	51.5	1	4	270	0.00	29.762 
05:15	56.6	56.6	56.6	83	51.5	1	3	270	0.00	29.762 
05:20	56.6	56.6	56.6	83	51.5	1	4	270	0.00	29.762 
05:25	56.6	56.6	56.6	83	51.5	1	4	248	0.00	29.762 
05:30	56.6	56.6	56.6	83	51.5	1	4	270	0.00	29.757 
05:35	56.6	56.6	56.6	83	51.5	1	5	248	0.00	29.757 
05:40	56.6	56.6	56.6	83	51.5	1	4	270	0.00	29.757 
05:45	56.6	56.6	56.6	83	51.5	1	3	270	0.00	29.755 
05:50	56.5	56.5	56.5	84	51.7	1	3	270	0.00	29.755 
05:55	56.6	56.6	56.6	83	51.5	1	4	270	0.00	29.755 
06:00	56.6	56.6	56.6	84	51.8	1	3	270	0.00	29.754 
06:05	56.5	56.5	56.5	84	51.7	0	3	248	0.00	29.754 
06:10	56.5	56.5	56.5	84	51.7	1	4	248	0.00	29.754 
06:15	56.6	56.6	56.6	84	51.8	1	4	248	0.00	29.755 
06:20	56.5	56.5	56.5	84	51.7	1	4	248	0.00	29.755 
06:25	56.5	56.5	56.5	84	51.7	1	2	248	0.00	29.755 
06:30	56.5	56.5	56.5	84	51.7	0	2	248	0.00	29.752 
06:35	56.3	56.3	56.3	84	51.5	0	3	248	0.00	29.752 
06:40	56.3	56.3	56.3	84	51.5	1	4	248	0.00	29.752 
06:45	56.5	56.5	56.5	84	51.7	1	5	248	0.00	29.752 
06:50	56.5	56.5	56.5	84	51.7	1	3	270	0.00	29.752 
06:55	56.5	56.5	56.5	84	51.7	2	7	248	0.00	29.752 
07:00	56.5	56.5	56.5	84	51.7	1	5	270	0.00	29.751 
07:05	56.5	56.5	56.5	84	51.7	1	4	248	0.00	29.751 
07:10	56.3	56.3	56.3	84	51.5	1	4	248	0.00	29.751 
07:15	56.3	56.3	56.3	84	51.5	1	4	248	0.00	29.753 
07:20	56.3	56.3	56.3	85	51.8	1	4	248	0.00	29.753 
07:25	56.3	56.3	56.3	85	51.8	1	3	248	0.00	29.753 
07:30	56.2	56.2	56.2	85	51.7	1	5	248	0.00	29.752 
07:35	56.2	56.2	56.2	85	51.7	1	4	248	0.00	29.752 
07:40	56.3	56.3	56.3	85	51.8	1	6	270	0.00	29.752 
07:45	56.2	56.2	56.2	85	51.7	1	6	248	0.00	29.750 
07:50	56.3	56.3	56.3	85	51.8	1	5	248	0.00	29.750 
07:55	56.3	56.3	56.3	85	51.8	2	5	248	0.00	29.750 
08:00	56.5	56.5	56.5	85	52.0	1	4	248	0.00	29.750 
08:05	56.5	56.5	56.5	85	52.0	1	5	292	0.00	29.750 
08:10	56.7	56.7	56.7	84	51.9	2	4	248	0.00	29.750 
08:15	56.9	56.9	56.9	84	52.1	1	3	248	0.00	29.749 
08:20	57.0	57.0	57.0	83	51.9	2	4	248	0.00	29.749 
08:25	57.3	57.3	57.3	83	52.2	1	5	248	0.00	29.749 
08:30	57.5	57.5	57.5	83	52.4	2	7	270	0.00	29.745 
08:35	57.8	57.8	57.8	82	52.3	2	6	248	0.00	29.745 
08:40	58.3	58.3	58.3	81	52.5	1	5	270	0.00	29.745 
08:45	58.4	58.4	58.4	81	52.6	2	7	270	0.00	29.743 
08:50	58.6	58.6	58.6	81	52.8	2	6	270	0.00	29.743 
08:55	58.7	58.7	58.7	80	52.5	2	5	248	0.00	29.743 
09:00	58.9	58.9	58.9	80	52.7	1	4	248	0.00	29.745 
09:05	59.2	59.2	59.2	80	53.0	1	5	270	0.00	29.745 
09:10	59.6	59.6	59.6	78	52.7	2	5	248	0.00	29.745 
09:15	60.1	60.1	60.1	78	53.2	2	9	248	0.00	29.742 
09:20	60.4	60.4	60.4	77	53.2	2	7	248	0.00	29.742 
09:25	60.9	60.9	60.9	76	53.3	2	7	270	0.00	29.742 
09:30	61.2	61.2	61.2	75	53.2	2	5	248	0.00	29.728 
09:35	61.5	61.5	61.5	74	53.1	3	8	248	0.00	29.728 
09:40	61.8	61.8	61.8	74	53.4	3	7	270	0.00	29.728 
09:45	62.3	62.3	62.3	73	53.5	2	10	270	0.00	29.737 
09:50	62.6	62.6	62.6	72	53.4	2	5	248	0.00	29.737 
09:55	63.2	63.2	63.2	71	53.6	2	5	248	0.00	29.737 
10:00	63.5	63.5	63.5	70	53.5	3	9	270	0.00	29.741 
10:05	63.4	63.4	63.4	69	53.0	3	7	248	0.00	29.741 
10:10	63.4	63.4	63.4	70	53.4	3	7	270	0.00	29.741 
10:15	63.5	63.5	63.5	70	53.5	2	10	270	0.00	29.729 
10:20	64.0	64.0	64.0	70	54.0	2	7	270	0.00	29.729 
10:25	64.8	64.8	64.8	68	54.0	2	5	248	0.00	29.729 
10:30	65.3	65.3	65.3	67	54.1	3	6	248	0.00	29.724 
10:35	65.5	65.5	65.5	66	53.8	2	7	248	0.00	29.724 
10:40	65.5	65.5	65.5	66	53.8	2	6	270	0.00	29.724 
10:45	65.6	65.6	65.6	67	54.3	1	5	248	0.00	29.715 
10:50	66.0	66.0	66.0	66	54.3	2	6	248	0.00	29.715 
10:55	66.3	66.3	66.3	65	54.2	2	7	270	0.00	29.715 
11:00	66.4	66.4	66.4	64	53.8	2	5	248	0.00	29.714 
11:05	66.9	66.9	66.9	65	54.7	2	4	248	0.00	29.714 
11:10	67.6	67.6	67.6	62	54.1	3	7	248	0.00	29.714 
11:15	67.9	67.9	67.9	61	53.9	3	11	270	0.00	29.705 
11:20	68.1	68.1	68.1	60	53.7	3	7	270	0.00	29.705 
11:25	68.6	68.6	68.6	60	54.1	3	11	270	0.00	29.705 
11:30	69.1	69.1	69.1	58	53.7	4	11	270	0.00	29.689 
11:35	70.3	70.3	70.3	58	54.8	2	6	248	0.00	29.689 
11:40	71.3	71.3	71.3	55	54.3	3	8	248	0.00	29.689 
11:45	71.3	71.3	71.3	54	53.8	4	11	248	0.00	29.681 
11:50	70.9	70.9	70.9	51	51.9	3	9	270	0.00	29.681 
11:55	70.4	70.4	70.4	53	52.4	3	7	270	0.00	29.681 
12:00	70.3	70.3	70.3	53	52.3	3	6	248	0.00	29.687 
12:05	70.6	70.6	70.6	53	52.6	2	6	248	0.00	29.687 
12:10	70.8	70.8	70.8	53	52.8	3	7	248	0.00	29.687 
12:15	70.9	70.9	70.9	52	52.4	2	5	248	0.00	29.693 
12:20	71.1	71.1	71.1	52	52.6	2	4	248	0.00	29.693 
12:25	71.1	71.1	71.1	54	53.6	2	4	270	0.00	29.693 
12:30	70.9	70.9	70.9	51	51.9	3	7	270	0.00	29.688 
12:35	70.8	70.8	70.8	51	51.8	3	8	270	0.00	29.688 
12:40	70.8	70.8	70.8	53	52.8	2	5	270	0.00	29.688 
12:45	71.1	71.1	71.1	52	52.6	3	7	248	0.00	29.686 
12:50	71.3	71.3	71.3	51	52.2	3	10	248	0.00	29.686 
12:55	71.6	71.6	71.6	51	52.5	4	10	270	0.00	29.686 
13:00	72.8	72.8	72.8	53	54.7	3	6	270	0.00	29.676 
13:05	73.0	73.0	73.0	51	53.8	3	10	270	0.00	29.676 
13:10	73.0	73.0	73.0	51	53.8	3	5	270	0.00	29.676 
13:15	72.8	72.8	72.8	52	54.1	3	13	270	0.00	29.669 
13:20	73.0	73.0	73.0	50	53.2	2	6	248	0.00	29.669 
13:25	73.0	73.0	73.0	49	52.7	4	11	270	0.00	29.669 
13:30	73.0	73.0	73.0	50	53.2	3	6	248	0.00	29.667 
13:35	72.8	72.8	72.8	51	53.6	2	5	248	0.00	29.667 
13:40	72.7	72.7	72.7	50	53.0	3	9	270	0.00	29.667 
13:45	72.5	72.5	72.5	51	53.3	3	10	270	0.00	29.656 
13:50	72.8	72.8	72.8	52	54.1	2	7	248	0.00	29.656 
13:55	73.3	73.3	73.3	50	53.5	1	4	248	0.00	29.656 
14:00	73.3	73.3	73.3	50	53.5	1	4	248	0.00	29.650 
14:05	73.3	73.3	73.3	51	54.1	2	5	270	0.00	29.650 
14:10	73.5	73.5	73.5	51	54.2	2	4	248	0.00	29.650 
14:15	73.9	73.9	73.9	52	55.1	1	3	248	0.00	29.647 
14:20	74.2	74.2	74.2	52	55.4	2	12	225	0.00	29.647 
14:25	74.6	74.6	74.6	49	54.2	3	8	248	0.00	29.647 
14:30	74.6	74.6	74.6	47	53.0	3	7	270	0.00	29.642 
14:35	74.4	74.4	74.4	48	53.4	2	5	248	0.00	29.642 
14:40	74.2	74.2	74.2	48	53.2	3	5	270	0.00	29.642 
14:45	74.0	74.0	74.0	48	53.0	2	7	248	0.00	29.641 
14:50	74.2	74.2	74.2	48	53.2	3	11	248	0.00	29.641 
14:55	74.4	74.4	74.4	48	53.4	2	5	248	0.00	29.641 
15:00	74.2	74.2	74.2	48	53.2	2	4	270	0.00	29.637 
15:05	73.9	73.9	73.9	49	53.5	1	4	270	0.00	29.637 
15:10	73.5	73.5	73.5	50	53.7	1	3	248	0.00	29.637 
15:15	73.0	73.0	73.0	52	54.3	1	2	248	0.00	29.636 
15:20	72.7	72.7	72.7	54	55.1	1	3	248	0.00	29.636 
15:25	72.0	72.0	72.0	56	55.4	1	4	248	0.00	29.636 
15:30	71.1	71.1	71.1	61	57.0	2	5	248	0.00	29.639 
15:35	70.9	70.9	70.9	61	56.8	1	3	248	0.00	29.639 
15:40	70.8	70.8	70.8	62	57.1	2	4	270	0.00	29.639 
15:45	70.8	70.8	70.8	63	57.6	1	3	248	0.00	29.639 
15:50	70.9	70.9	70.9	62	57.2	1	2	248	0.00	29.639 
15:55	71.1	71.1	71.1	61	57.0	1	6	248	0.00	29.639 
16:00	70.9	70.9	70.9	60	56.3	1	3	248	0.00	29.627 
16:05	70.9	70.9	70.9	62	57.2	0	2	248	0.00	29.627 
16:10	70.9	70.9	70.9	61	56.8	0	1	292	0.00	29.627 
16:15	71.3	71.3	71.3	62	57.6	1	2	292	0.00	29.627 
16:20	71.6	71.6	71.6	61	57.4	1	3	292	0.00	29.627 
16:25	72.0	72.0	72.0	60	57.3	1	3	315	0.00	29.627 
16:30	72.1	72.1	72.1	60	57.4	1	2	292	0.00	29.625 
16:35	72.1	72.1	72.1	59	57.0	1	3	270	0.00	29.625 
16:40	72.0	72.0	72.0	58	56.4	1	3	315	0.00	29.625 
16:45	71.8	71.8	71.8	58	56.2	1	3	292	0.00	29.622 
16:50	71.5	71.5	71.5	58	55.9	1	2	270	0.00	29.622 
16:55	70.8	70.8	70.8	63	57.6	0	1	270	0.00	29.622 
17:00	69.8	69.8	69.8	66	57.9	0	1	270	0.00	29.627 
17:05	69.1	69.1	69.1	67	57.7	0	2	292	0.00	29.627 
17:10	68.6	68.6	68.6	67	57.2	0	1	292	0.00	29.627 
17:15	68.3	68.3	68.3	68	57.3	1	3	315	0.00	29.640 
17:20	67.8	67.8	67.8	70	57.6	1	2	292	0.01	29.640 
17:25	66.3	66.3	66.3	77	58.9	0	1	315	0.04	29.640 
17:30	64.8	64.8	64.8	80	58.5	1	3	315	0.00	29.647 
17:35	64.0	64.0	64.0	83	58.7	0	3	315	0.00	29.647 
17:40	63.5	63.5	63.5	84	58.6	0	2	292	0.00	29.647 
17:45	63.2	63.2	63.2	85	58.6	0	2	315	0.00	29.651 
17:50	63.2	63.2	63.2	83	57.9	1	3	315	0.01	29.651 
17:55	62.9	62.9	62.9	84	58.0	1	3	315	0.00	29.651 
18:00	62.6	62.6	62.6	84	57.7	0	2	315	0.01	29.648 
18:05	62.4	62.4	62.4	85	57.8	1	3	270	0.01	29.648 
18:10	62.3	62.3	62.3	87	58.4	0	1	270	0.01	29.648 
18:15	62.0	62.0	62.0	88	58.4	0	0	---	0.00	29.658 
18:20	61.8	61.8	61.8	88	58.2	0	2	248	0.00	29.658 
18:25	61.8	61.8	61.8	90	58.8	0	1	248	0.00	29.658 
18:30	61.8	61.8	61.8	90	58.8	0	1	248	0.00	29.666 
18:35	61.8	61.8	61.8	91	59.1	0	1	248	0.00	29.666 
18:40	62.0	62.0	62.0	91	59.3	0	1	248	0.00	29.666 
18:45	61.8	61.8	61.8	91	59.1	0	1	248	0.00	29.664 
18:50	61.6	61.6	61.6	91	58.9	0	0	---	0.00	29.664 
18:55	61.5	61.5	61.5	91	58.8	0	0	---	0.00	29.664 
19:00	61.3	61.3	61.3	91	58.6	0	0	---	0.00	29.654 
19:05	61.2	61.2	61.2	92	58.9	0	0	---	0.00	29.654 
19:10	61.2	61.2	61.2	92	58.9	0	1	248	0.00	29.654 
19:15	61.0	61.0	61.0	92	58.7	0	2	315	0.00	29.678 
19:20	61.0	61.0	61.0	92	58.7	0	1	315	0.00	29.678 
19:25	60.9	60.9	60.9	92	58.6	0	1	315	0.00	29.678 
19:30	60.9	60.9	60.9	92	58.6	0	1	315	0.00	29.687 
19:35	60.9	60.9	60.9	92	58.6	0	0	---	0.00	29.687 
19:40	60.7	60.7	60.7	92	58.4	0	1	315	0.00	29.687 
19:45	60.7	60.7	60.7	91	58.1	0	1	315	0.00	29.686 
19:50	60.5	60.5	60.5	91	57.9	0	1	315	0.00	29.686 
19:55	60.4	60.4	60.4	90	57.4	0	0	---	0.00	29.686 
20:00	60.4	60.4	60.4	90	57.4	0	0	---	0.00	29.694 
20:05	60.2	60.2	60.2	90	57.3	0	0	---	0.00	29.694 
20:10	59.9	59.9	59.9	90	57.0	0	0	---	0.00	29.694 
20:15	59.6	59.6	59.6	90	56.7	0	0	---	0.00	29.696 
20:20	59.5	59.5	59.5	91	56.9	0	0	---	0.00	29.696 
20:25	59.3	59.3	59.3	91	56.7	0	0	---	0.00	29.696 
20:30	59.2	59.2	59.2	91	56.6	0	0	---	0.00	29.698 
20:35	59.0	59.0	59.0	91	56.4	0	0	---	0.00	29.698 
20:40	58.9	58.9	58.9	91	56.3	0	0	---	0.00	29.698 
20:45	58.7	58.7	58.7	91	56.1	0	0	---	0.00	29.707 
20:50	58.6	58.6	58.6	92	56.3	0	0	---	0.00	29.707 
20:55	58.6	58.6	58.6	92	56.3	0	0	---	0.00	29.707 
21:00	58.4	58.4	58.4	92	56.1	0	0	---	0.00	29.713 
21:05	58.4	58.4	58.4	92	56.1	0	0	---	0.00	29.713 
21:10	58.3	58.3	58.3	93	56.3	0	0	---	0.00	29.713 
21:15	58.3	58.3	58.3	93	56.3	0	0	---	0.00	29.709 
21:20	58.1	58.1	58.1	93	56.1	0	0	---	0.00	29.709 
21:25	58.0	58.0	58.0	93	56.0	0	0	---	0.00	29.709 
21:30	58.0	58.0	58.0	93	56.0	0	0	---	0.00	29.710 
21:35	57.8	57.8	57.8	92	55.5	0	0	---	0.00	29.710 
21:40	57.8	57.8	57.8	91	55.2	0	1	315	0.00	29.710 
21:45	57.8	57.8	57.8	90	54.9	0	0	---	0.00	29.717 
21:50	58.0	58.0	58.0	89	54.8	0	0	---	0.00	29.717 
21:55	58.0	58.0	58.0	88	54.5	0	0	---	0.00	29.717 
22:00	58.1	58.1	58.1	87	54.2	0	2	315	0.00	29.716 
22:05	58.3	58.3	58.3	84	53.5	0	2	315	0.00	29.716 
22:10	58.4	58.4	58.4	81	52.6	1	2	315	0.00	29.716 
22:15	58.3	58.3	58.3	81	52.5	0	1	315	0.00	29.721 
22:20	58.1	58.1	58.1	82	52.6	0	1	315	0.00	29.721 
22:25	58.0	58.0	58.0	82	52.5	0	2	315	0.00	29.721 
22:30	57.8	57.8	57.8	82	52.3	0	2	315	0.00	29.712 
22:35	57.8	57.8	57.8	81	52.0	1	3	315	0.00	29.712 
22:40	57.6	57.6	57.6	82	52.1	0	2	315	0.00	29.712 
22:45	57.5	57.5	57.5	82	52.0	0	2	315	0.00	29.711 
22:50	57.3	57.3	57.3	83	52.2	0	1	315	0.00	29.711 
22:55	57.2	57.2	57.2	83	52.1	0	3	292	0.00	29.711 
23:00	57.2	57.2	57.2	83	52.1	0	2	315	0.00	29.711 
23:05	57.0	57.0	57.0	83	51.9	0	2	292	0.00	29.711 
23:10	57.0	57.0	57.0	83	51.9	0	2	292	0.00	29.711 
23:15	57.0	57.0	57.0	83	51.9	0	1	315	0.00	29.721 
23:20	57.0	57.0	57.0	84	52.2	0	1	315	0.00	29.721 
23:25	56.9	56.9	56.9	83	51.8	0	2	315	0.00	29.721 
23:30	56.9	56.9	56.9	83	51.8	0	2	315	0.00	29.722 
23:35	56.7	56.7	56.7	83	51.6	0	1	315	0.00	29.722 
23:40	56.6	56.6	56.6	83	51.5	0	1	315	0.00	29.722 
23:45	56.5	56.5	56.5	83	51.4	0	1	315	0.00	29.723 
23:50	56.3	56.3	56.3	84	51.5	0	1	315	0.00	29.723 
23:55	56.2	56.2	56.2	84	51.4	0	0	---	0.00	29.723 

CoCoRaHS
IN-AL-39
A2 Web Hosting
Creative Commons License
GoDaddy
Look for:

loaded 2017-12-12 16:46:23 • last modified 2010-11-18 10:43:29
Privacy PolicyDisclaimer
• wx.awcolley.com is powered by PmWiki v.2002016 •
• all content (unless otherwise noted) © 2017 A W Colley